sensor_id;sensor_type;location;lat;lon;timestamp;P1;durP1;ratioP1;P2;durP2;ratioP2
7573;SDS011;3828;48.922;9.116;2023-01-10T00:02:09;1.80;;;1.70;;
7573;SDS011;3828;48.922;9.116;2023-01-10T00:04:36;1.60;;;1.60;;
7573;SDS011;3828;48.922;9.116;2023-01-10T00:07:03;2.43;;;2.20;;
7573;SDS011;3828;48.922;9.116;2023-01-10T00:09:31;2.20;;;2.07;;
7573;SDS011;3828;48.922;9.116;2023-01-10T00:11:58;2.10;;;2.00;;
7573;SDS011;3828;48.922;9.116;2023-01-10T00:14:42;2.27;;;1.70;;
7573;SDS011;3828;48.922;9.116;2023-01-10T00:17:09;2.13;;;1.90;;
7573;SDS011;3828;48.922;9.116;2023-01-10T00:19:35;2.20;;;2.00;;
7573;SDS011;3828;48.922;9.116;2023-01-10T00:22:02;2.10;;;2.00;;
7573;SDS011;3828;48.922;9.116;2023-01-10T00:24:42;2.20;;;2.10;;
7573;SDS011;3828;48.922;9.116;2023-01-10T00:27:09;2.30;;;2.20;;
7573;SDS011;3828;48.922;9.116;2023-01-10T00:29:39;2.13;;;2.03;;
7573;SDS011;3828;48.922;9.116;2023-01-10T00:32:05;2.30;;;2.20;;
7573;SDS011;3828;48.922;9.116;2023-01-10T00:34:32;2.17;;;2.07;;
7573;SDS011;3828;48.922;9.116;2023-01-10T00:37:00;2.30;;;2.10;;
7573;SDS011;3828;48.922;9.116;2023-01-10T00:39:27;2.70;;;2.50;;
7573;SDS011;3828;48.922;9.116;2023-01-10T00:41:55;2.13;;;2.03;;
7573;SDS011;3828;48.922;9.116;2023-01-10T00:44:40;2.30;;;2.20;;
7573;SDS011;3828;48.922;9.116;2023-01-10T00:47:06;2.60;;;2.40;;
7573;SDS011;3828;48.922;9.116;2023-01-10T00:49:33;2.43;;;2.27;;
7573;SDS011;3828;48.922;9.116;2023-01-10T00:52:00;3.47;;;2.47;;
7573;SDS011;3828;48.922;9.116;2023-01-10T00:54:28;2.50;;;2.40;;
7573;SDS011;3828;48.922;9.116;2023-01-10T00:56:56;2.40;;;2.20;;
7573;SDS011;3828;48.922;9.116;2023-01-10T00:59:23;2.60;;;2.50;;
7573;SDS011;3828;48.922;9.116;2023-01-10T01:01:50;3.60;;;2.17;;
7573;SDS011;3828;48.922;9.116;2023-01-10T01:04:17;2.50;;;2.40;;
7573;SDS011;3828;48.922;9.116;2023-01-10T01:06:44;2.27;;;2.17;;
7573;SDS011;3828;48.922;9.116;2023-01-10T01:09:11;2.40;;;2.30;;
7573;SDS011;3828;48.922;9.116;2023-01-10T01:11:39;3.43;;;2.20;;
7573;SDS011;3828;48.922;9.116;2023-01-10T01:14:07;2.53;;;2.43;;
7573;SDS011;3828;48.922;9.116;2023-01-10T01:16:34;2.30;;;2.20;;
7573;SDS011;3828;48.922;9.116;2023-01-10T01:19:00;2.73;;;2.50;;
7573;SDS011;3828;48.922;9.116;2023-01-10T01:21:27;2.00;;;1.90;;
7573;SDS011;3828;48.922;9.116;2023-01-10T01:23:54;2.00;;;1.90;;
7573;SDS011;3828;48.922;9.116;2023-01-10T01:26:21;2.43;;;2.33;;
7573;SDS011;3828;48.922;9.116;2023-01-10T01:28:48;2.10;;;2.00;;
7573;SDS011;3828;48.922;9.116;2023-01-10T01:31:17;2.23;;;2.13;;
7573;SDS011;3828;48.922;9.116;2023-01-10T01:33:43;1.90;;;1.80;;
7573;SDS011;3828;48.922;9.116;2023-01-10T01:36:11;2.53;;;2.33;;
7573;SDS011;3828;48.922;9.116;2023-01-10T01:38:38;2.37;;;2.27;;
7573;SDS011;3828;48.922;9.116;2023-01-10T01:41:06;2.17;;;1.70;;
7573;SDS011;3828;48.922;9.116;2023-01-10T01:43:58;1.97;;;1.87;;
7573;SDS011;3828;48.922;9.116;2023-01-10T01:46:30;2.00;;;1.90;;
7573;SDS011;3828;48.922;9.116;2023-01-10T01:49:00;1.87;;;1.77;;
7573;SDS011;3828;48.922;9.116;2023-01-10T01:51:29;1.70;;;1.70;;
7573;SDS011;3828;48.922;9.116;2023-01-10T01:53:58;1.77;;;1.67;;
7573;SDS011;3828;48.922;9.116;2023-01-10T01:56:30;1.90;;;1.80;;
7573;SDS011;3828;48.922;9.116;2023-01-10T01:59:04;2.13;;;1.93;;
7573;SDS011;3828;48.922;9.116;2023-01-10T02:01:35;2.00;;;1.90;;
7573;SDS011;3828;48.922;9.116;2023-01-10T02:04:07;2.10;;;2.00;;
7573;SDS011;3828;48.922;9.116;2023-01-10T02:06:36;1.90;;;1.83;;
7573;SDS011;3828;48.922;9.116;2023-01-10T02:09:06;1.80;;;1.80;;
7573;SDS011;3828;48.922;9.116;2023-01-10T02:11:37;2.10;;;2.00;;
7573;SDS011;3828;48.922;9.116;2023-01-10T02:14:04;2.23;;;2.13;;
7573;SDS011;3828;48.922;9.116;2023-01-10T02:16:32;2.03;;;1.73;;
7573;SDS011;3828;48.922;9.116;2023-01-10T02:19:01;2.10;;;2.00;;
7573;SDS011;3828;48.922;9.116;2023-01-10T02:21:32;1.90;;;1.80;;
7573;SDS011;3828;48.922;9.116;2023-01-10T02:24:24;2.50;;;2.30;;
7573;SDS011;3828;48.922;9.116;2023-01-10T02:27:16;2.17;;;1.97;;
7573;SDS011;3828;48.922;9.116;2023-01-10T02:30:08;1.80;;;1.80;;
7573;SDS011;3828;48.922;9.116;2023-01-10T02:32:56;3.37;;;2.60;;
7573;SDS011;3828;48.922;9.116;2023-01-10T02:35:42;3.03;;;2.83;;
7573;SDS011;3828;48.922;9.116;2023-01-10T02:38:21;2.30;;;2.20;;
7573;SDS011;3828;48.922;9.116;2023-01-10T02:40:59;2.43;;;2.20;;
7573;SDS011;3828;48.922;9.116;2023-01-10T02:43:31;2.30;;;2.10;;
7573;SDS011;3828;48.922;9.116;2023-01-10T02:46:03;2.70;;;2.10;;
7573;SDS011;3828;48.922;9.116;2023-01-10T02:48:35;2.03;;;1.93;;
7573;SDS011;3828;48.922;9.116;2023-01-10T02:51:02;2.07;;;2.00;;
7573;SDS011;3828;48.922;9.116;2023-01-10T02:53:34;1.80;;;1.80;;
7573;SDS011;3828;48.922;9.116;2023-01-10T03:02:04;2.57;;;2.00;;
7573;SDS011;3828;48.922;9.116;2023-01-10T03:04:40;2.00;;;1.90;;
7573;SDS011;3828;48.922;9.116;2023-01-10T03:07:17;2.40;;;2.30;;
7573;SDS011;3828;48.922;9.116;2023-01-10T03:09:51;3.43;;;2.03;;
7573;SDS011;3828;48.922;9.116;2023-01-10T03:12:22;3.17;;;2.23;;
7573;SDS011;3828;48.922;9.116;2023-01-10T03:14:52;2.30;;;2.10;;
7573;SDS011;3828;48.922;9.116;2023-01-10T03:17:22;2.63;;;2.50;;
7573;SDS011;3828;48.922;9.116;2023-01-10T03:19:53;2.43;;;2.23;;
7573;SDS011;3828;48.922;9.116;2023-01-10T03:22:23;2.93;;;2.73;;
7573;SDS011;3828;48.922;9.116;2023-01-10T03:24:53;2.27;;;2.17;;
7573;SDS011;3828;48.922;9.116;2023-01-10T03:27:23;2.30;;;2.20;;
7573;SDS011;3828;48.922;9.116;2023-01-10T03:29:55;3.03;;;2.50;;
7573;SDS011;3828;48.922;9.116;2023-01-10T03:32:28;2.33;;;2.20;;
7573;SDS011;3828;48.922;9.116;2023-01-10T03:34:58;2.37;;;2.17;;
7573;SDS011;3828;48.922;9.116;2023-01-10T03:37:28;4.73;;;2.50;;
7573;SDS011;3828;48.922;9.116;2023-01-10T03:40:04;2.60;;;2.20;;
7573;SDS011;3828;48.922;9.116;2023-01-10T03:42:41;2.50;;;2.30;;
7573;SDS011;3828;48.922;9.116;2023-01-10T03:45:33;2.57;;;2.37;;
7573;SDS011;3828;48.922;9.116;2023-01-10T03:48:05;4.27;;;2.77;;
7573;SDS011;3828;48.922;9.116;2023-01-10T03:50:37;2.33;;;2.23;;
7573;SDS011;3828;48.922;9.116;2023-01-10T03:53:05;2.87;;;2.40;;
7573;SDS011;3828;48.922;9.116;2023-01-10T03:55:32;2.87;;;2.67;;
7573;SDS011;3828;48.922;9.116;2023-01-10T03:58:01;2.40;;;2.30;;
7573;SDS011;3828;48.922;9.116;2023-01-10T04:00:28;2.73;;;2.50;;
7573;SDS011;3828;48.922;9.116;2023-01-10T04:02:55;2.40;;;2.30;;
7573;SDS011;3828;48.922;9.116;2023-01-10T04:05:23;3.40;;;2.50;;
7573;SDS011;3828;48.922;9.116;2023-01-10T04:07:51;2.37;;;2.27;;
7573;SDS011;3828;48.922;9.116;2023-01-10T04:10:18;3.23;;;2.03;;
7573;SDS011;3828;48.922;9.116;2023-01-10T04:12:45;3.47;;;2.40;;
7573;SDS011;3828;48.922;9.116;2023-01-10T04:15:11;2.50;;;2.40;;
7573;SDS011;3828;48.922;9.116;2023-01-10T04:17:38;3.37;;;2.47;;
7573;SDS011;3828;48.922;9.116;2023-01-10T04:20:05;2.40;;;2.20;;
7573;SDS011;3828;48.922;9.116;2023-01-10T04:22:32;3.10;;;2.30;;
7573;SDS011;3828;48.922;9.116;2023-01-10T04:25:00;3.20;;;2.47;;
7573;SDS011;3828;48.922;9.116;2023-01-10T04:27:27;2.57;;;2.23;;
7573;SDS011;3828;48.922;9.116;2023-01-10T04:29:54;2.30;;;2.20;;
7573;SDS011;3828;48.922;9.116;2023-01-10T04:32:20;3.53;;;2.57;;
7573;SDS011;3828;48.922;9.116;2023-01-10T04:34:47;5.23;;;2.70;;
7573;SDS011;3828;48.922;9.116;2023-01-10T04:37:14;3.10;;;2.20;;
7573;SDS011;3828;48.922;9.116;2023-01-10T04:39:41;4.57;;;2.57;;
7573;SDS011;3828;48.922;9.116;2023-01-10T04:42:09;4.83;;;3.00;;
7573;SDS011;3828;48.922;9.116;2023-01-10T04:44:35;5.37;;;2.40;;
7573;SDS011;3828;48.922;9.116;2023-01-10T04:47:02;4.30;;;2.77;;
7573;SDS011;3828;48.922;9.116;2023-01-10T04:49:29;3.70;;;2.87;;
7573;SDS011;3828;48.922;9.116;2023-01-10T04:51:56;4.43;;;2.97;;
7573;SDS011;3828;48.922;9.116;2023-01-10T04:54:23;4.40;;;3.00;;
7573;SDS011;3828;48.922;9.116;2023-01-10T04:56:49;3.87;;;2.70;;
7573;SDS011;3828;48.922;9.116;2023-01-10T04:59:18;3.20;;;2.90;;
7573;SDS011;3828;48.922;9.116;2023-01-10T05:01:44;3.37;;;2.97;;
7573;SDS011;3828;48.922;9.116;2023-01-10T05:04:11;3.97;;;2.77;;
7573;SDS011;3828;48.922;9.116;2023-01-10T05:06:38;6.23;;;3.30;;
7573;SDS011;3828;48.922;9.116;2023-01-10T05:09:05;9.30;;;3.27;;
7573;SDS011;3828;48.922;9.116;2023-01-10T05:11:32;5.43;;;3.47;;
7573;SDS011;3828;48.922;9.116;2023-01-10T05:13:59;7.57;;;3.03;;
7573;SDS011;3828;48.922;9.116;2023-01-10T05:16:27;3.20;;;2.90;;
7573;SDS011;3828;48.922;9.116;2023-01-10T05:18:54;3.90;;;3.30;;
7573;SDS011;3828;48.922;9.116;2023-01-10T05:21:21;7.83;;;3.83;;
7573;SDS011;3828;48.922;9.116;2023-01-10T05:23:47;5.60;;;2.80;;
7573;SDS011;3828;48.922;9.116;2023-01-10T05:26:15;3.40;;;2.97;;
7573;SDS011;3828;48.922;9.116;2023-01-10T05:28:43;7.73;;;3.43;;
7573;SDS011;3828;48.922;9.116;2023-01-10T05:31:11;10.97;;;3.60;;
7573;SDS011;3828;48.922;9.116;2023-01-10T05:33:43;6.90;;;2.97;;
7573;SDS011;3828;48.922;9.116;2023-01-10T05:36:11;5.77;;;4.20;;
7573;SDS011;3828;48.922;9.116;2023-01-10T05:38:37;6.77;;;4.37;;
7573;SDS011;3828;48.922;9.116;2023-01-10T05:41:05;8.10;;;3.00;;
7573;SDS011;3828;48.922;9.116;2023-01-10T05:43:32;6.97;;;3.67;;
7573;SDS011;3828;48.922;9.116;2023-01-10T05:45:58;7.40;;;3.30;;
7573;SDS011;3828;48.922;9.116;2023-01-10T05:48:25;8.67;;;3.17;;
7573;SDS011;3828;48.922;9.116;2023-01-10T05:50:53;7.80;;;3.70;;
7573;SDS011;3828;48.922;9.116;2023-01-10T05:53:21;10.50;;;3.20;;
7573;SDS011;3828;48.922;9.116;2023-01-10T05:55:51;8.63;;;3.87;;
7573;SDS011;3828;48.922;9.116;2023-01-10T05:58:19;5.70;;;2.90;;
7573;SDS011;3828;48.922;9.116;2023-01-10T06:00:46;4.67;;;2.83;;
7573;SDS011;3828;48.922;9.116;2023-01-10T06:03:12;7.17;;;3.10;;
7573;SDS011;3828;48.922;9.116;2023-01-10T06:05:39;8.57;;;2.97;;
7573;SDS011;3828;48.922;9.116;2023-01-10T06:08:07;6.37;;;2.90;;
7573;SDS011;3828;48.922;9.116;2023-01-10T06:10:34;9.17;;;3.93;;
7573;SDS011;3828;48.922;9.116;2023-01-10T06:15:57;9.97;;;3.37;;
7573;SDS011;3828;48.922;9.116;2023-01-10T06:18:24;11.00;;;3.83;;
7573;SDS011;3828;48.922;9.116;2023-01-10T06:20:51;4.03;;;3.20;;
7573;SDS011;3828;48.922;9.116;2023-01-10T06:23:19;7.27;;;3.73;;
7573;SDS011;3828;48.922;9.116;2023-01-10T06:25:46;10.40;;;3.80;;
7573;SDS011;3828;48.922;9.116;2023-01-10T06:28:12;4.70;;;3.30;;
7573;SDS011;3828;48.922;9.116;2023-01-10T06:30:39;9.37;;;3.10;;
7573;SDS011;3828;48.922;9.116;2023-01-10T06:33:07;5.43;;;2.93;;
7573;SDS011;3828;48.922;9.116;2023-01-10T06:35:35;7.73;;;2.83;;
7573;SDS011;3828;48.922;9.116;2023-01-10T06:38:02;4.97;;;3.27;;
7573;SDS011;3828;48.922;9.116;2023-01-10T06:40:30;7.83;;;2.83;;
7573;SDS011;3828;48.922;9.116;2023-01-10T06:42:57;8.60;;;3.23;;
7573;SDS011;3828;48.922;9.116;2023-01-10T06:45:24;8.10;;;3.30;;
7573;SDS011;3828;48.922;9.116;2023-01-10T06:47:51;13.97;;;4.40;;
7573;SDS011;3828;48.922;9.116;2023-01-10T06:50:17;4.97;;;3.67;;
7573;SDS011;3828;48.922;9.116;2023-01-10T06:52:44;7.67;;;3.60;;
7573;SDS011;3828;48.922;9.116;2023-01-10T06:55:11;6.73;;;3.43;;
7573;SDS011;3828;48.922;9.116;2023-01-10T06:57:40;7.43;;;3.40;;
7573;SDS011;3828;48.922;9.116;2023-01-10T07:00:07;9.23;;;3.80;;
7573;SDS011;3828;48.922;9.116;2023-01-10T07:02:35;5.80;;;3.30;;
7573;SDS011;3828;48.922;9.116;2023-01-10T07:05:02;7.53;;;3.20;;
7573;SDS011;3828;48.922;9.116;2023-01-10T07:07:29;7.50;;;3.03;;
7573;SDS011;3828;48.922;9.116;2023-01-10T07:09:56;4.90;;;3.30;;
7573;SDS011;3828;48.922;9.116;2023-01-10T07:12:23;4.33;;;3.60;;
7573;SDS011;3828;48.922;9.116;2023-01-10T07:14:51;7.07;;;3.23;;
7573;SDS011;3828;48.922;9.116;2023-01-10T07:17:18;4.93;;;3.00;;
7573;SDS011;3828;48.922;9.116;2023-01-10T07:19:45;8.87;;;4.03;;
7573;SDS011;3828;48.922;9.116;2023-01-10T07:22:12;5.77;;;2.80;;
7573;SDS011;3828;48.922;9.116;2023-01-10T07:24:38;5.90;;;3.27;;
7573;SDS011;3828;48.922;9.116;2023-01-10T07:27:05;8.30;;;3.40;;
7573;SDS011;3828;48.922;9.116;2023-01-10T07:29:32;7.37;;;4.07;;
7573;SDS011;3828;48.922;9.116;2023-01-10T07:32:00;4.70;;;3.00;;
7573;SDS011;3828;48.922;9.116;2023-01-10T07:34:27;5.57;;;3.20;;
7573;SDS011;3828;48.922;9.116;2023-01-10T07:36:54;9.03;;;4.47;;
7573;SDS011;3828;48.922;9.116;2023-01-10T07:42:07;6.50;;;3.23;;
7573;SDS011;3828;48.922;9.116;2023-01-10T07:44:34;6.50;;;3.27;;
7573;SDS011;3828;48.922;9.116;2023-01-10T07:47:02;5.53;;;3.23;;
7573;SDS011;3828;48.922;9.116;2023-01-10T07:49:29;9.20;;;3.27;;
7573;SDS011;3828;48.922;9.116;2023-01-10T07:51:56;11.03;;;3.70;;
7573;SDS011;3828;48.922;9.116;2023-01-10T07:54:22;8.13;;;3.80;;
7573;SDS011;3828;48.922;9.116;2023-01-10T07:56:49;8.20;;;3.20;;
7573;SDS011;3828;48.922;9.116;2023-01-10T07:59:16;10.20;;;3.20;;
7573;SDS011;3828;48.922;9.116;2023-01-10T08:01:43;5.73;;;3.20;;
7573;SDS011;3828;48.922;9.116;2023-01-10T08:04:11;8.60;;;3.47;;
7573;SDS011;3828;48.922;9.116;2023-01-10T08:06:41;7.60;;;3.27;;
7573;SDS011;3828;48.922;9.116;2023-01-10T08:09:07;9.17;;;3.07;;
7573;SDS011;3828;48.922;9.116;2023-01-10T08:11:34;7.47;;;3.43;;
7573;SDS011;3828;48.922;9.116;2023-01-10T08:14:01;9.50;;;3.43;;
7573;SDS011;3828;48.922;9.116;2023-01-10T08:16:28;8.07;;;3.40;;
7573;SDS011;3828;48.922;9.116;2023-01-10T08:18:54;5.53;;;3.30;;
7573;SDS011;3828;48.922;9.116;2023-01-10T08:21:22;7.77;;;3.60;;
7573;SDS011;3828;48.922;9.116;2023-01-10T08:23:52;7.67;;;4.07;;
7573;SDS011;3828;48.922;9.116;2023-01-10T08:26:21;6.80;;;3.43;;
7573;SDS011;3828;48.922;9.116;2023-01-10T08:28:49;8.83;;;4.03;;
7573;SDS011;3828;48.922;9.116;2023-01-10T08:31:15;12.90;;;3.53;;
7573;SDS011;3828;48.922;9.116;2023-01-10T08:33:42;9.33;;;3.80;;
7573;SDS011;3828;48.922;9.116;2023-01-10T08:36:13;9.17;;;3.30;;
7573;SDS011;3828;48.922;9.116;2023-01-10T08:38:43;10.13;;;3.97;;
7573;SDS011;3828;48.922;9.116;2023-01-10T08:41:10;9.83;;;3.10;;
7573;SDS011;3828;48.922;9.116;2023-01-10T08:43:37;7.23;;;3.37;;
7573;SDS011;3828;48.922;9.116;2023-01-10T08:46:04;9.07;;;3.80;;
7573;SDS011;3828;48.922;9.116;2023-01-10T08:48:31;11.17;;;3.33;;
7573;SDS011;3828;48.922;9.116;2023-01-10T08:51:03;4.70;;;3.23;;
7573;SDS011;3828;48.922;9.116;2023-01-10T08:53:31;9.23;;;3.57;;
7573;SDS011;3828;48.922;9.116;2023-01-10T08:55:59;4.97;;;3.93;;
7573;SDS011;3828;48.922;9.116;2023-01-10T08:58:26;4.57;;;3.90;;
7573;SDS011;3828;48.922;9.116;2023-01-10T09:00:52;8.47;;;3.23;;
7573;SDS011;3828;48.922;9.116;2023-01-10T09:03:19;5.03;;;3.50;;
7573;SDS011;3828;48.922;9.116;2023-01-10T09:05:46;4.07;;;2.80;;
7573;SDS011;3828;48.922;9.116;2023-01-10T09:08:12;6.33;;;3.13;;
7573;SDS011;3828;48.922;9.116;2023-01-10T09:10:39;6.40;;;3.67;;
7573;SDS011;3828;48.922;9.116;2023-01-10T09:13:07;5.10;;;3.30;;
7573;SDS011;3828;48.922;9.116;2023-01-10T09:15:35;9.37;;;4.03;;
7573;SDS011;3828;48.922;9.116;2023-01-10T09:18:03;7.53;;;3.67;;
7573;SDS011;3828;48.922;9.116;2023-01-10T09:20:32;13.00;;;3.90;;
7573;SDS011;3828;48.922;9.116;2023-01-10T09:23:03;5.67;;;3.33;;
7573;SDS011;3828;48.922;9.116;2023-01-10T09:25:32;9.30;;;4.30;;
7573;SDS011;3828;48.922;9.116;2023-01-10T09:27:59;7.53;;;3.67;;
7573;SDS011;3828;48.922;9.116;2023-01-10T09:30:29;6.33;;;3.77;;
7573;SDS011;3828;48.922;9.116;2023-01-10T09:32:57;7.93;;;3.20;;
7573;SDS011;3828;48.922;9.116;2023-01-10T09:35:24;9.10;;;2.87;;
7573;SDS011;3828;48.922;9.116;2023-01-10T09:37:52;8.40;;;3.00;;
7573;SDS011;3828;48.922;9.116;2023-01-10T09:40:22;5.87;;;3.80;;
7573;SDS011;3828;48.922;9.116;2023-01-10T09:43:01;8.07;;;3.50;;
7573;SDS011;3828;48.922;9.116;2023-01-10T09:45:37;7.83;;;3.43;;
7573;SDS011;3828;48.922;9.116;2023-01-10T09:48:12;5.43;;;3.30;;
7573;SDS011;3828;48.922;9.116;2023-01-10T09:50:48;4.10;;;3.00;;
7573;SDS011;3828;48.922;9.116;2023-01-10T09:53:30;8.80;;;3.97;;
7573;SDS011;3828;48.922;9.116;2023-01-10T09:55:59;8.20;;;3.37;;
7573;SDS011;3828;48.922;9.116;2023-01-10T09:58:27;7.27;;;6.00;;
7573;SDS011;3828;48.922;9.116;2023-01-10T10:00:58;3.13;;;2.90;;
7573;SDS011;3828;48.922;9.116;2023-01-10T10:03:33;8.83;;;3.70;;
7573;SDS011;3828;48.922;9.116;2023-01-10T10:06:07;11.23;;;3.50;;
7573;SDS011;3828;48.922;9.116;2023-01-10T10:08:36;5.33;;;3.83;;
7573;SDS011;3828;48.922;9.116;2023-01-10T10:11:07;5.50;;;3.43;;
7573;SDS011;3828;48.922;9.116;2023-01-10T10:13:48;12.40;;;4.17;;
7573;SDS011;3828;48.922;9.116;2023-01-10T10:16:25;5.77;;;3.23;;
7573;SDS011;3828;48.922;9.116;2023-01-10T10:19:00;7.23;;;2.83;;
7573;SDS011;3828;48.922;9.116;2023-01-10T10:21:42;5.07;;;3.10;;
7573;SDS011;3828;48.922;9.116;2023-01-10T10:24:22;9.97;;;3.30;;
7573;SDS011;3828;48.922;9.116;2023-01-10T10:27:04;2.83;;;2.63;;
7573;SDS011;3828;48.922;9.116;2023-01-10T10:29:44;5.97;;;2.97;;
7573;SDS011;3828;48.922;9.116;2023-01-10T10:32:37;5.57;;;2.77;;
7573;SDS011;3828;48.922;9.116;2023-01-10T10:35:28;3.83;;;2.60;;
7573;SDS011;3828;48.922;9.116;2023-01-10T10:38:00;8.10;;;2.80;;
7573;SDS011;3828;48.922;9.116;2023-01-10T10:40:31;7.00;;;3.90;;
7573;SDS011;3828;48.922;9.116;2023-01-10T10:43:05;5.30;;;2.90;;
7573;SDS011;3828;48.922;9.116;2023-01-10T10:45:40;5.70;;;2.60;;
7573;SDS011;3828;48.922;9.116;2023-01-10T10:48:12;4.57;;;3.00;;
7573;SDS011;3828;48.922;9.116;2023-01-10T10:50:46;6.60;;;2.50;;
7573;SDS011;3828;48.922;9.116;2023-01-10T10:53:17;3.93;;;2.60;;
7573;SDS011;3828;48.922;9.116;2023-01-10T10:55:44;7.00;;;2.40;;
7573;SDS011;3828;48.922;9.116;2023-01-10T10:58:11;6.70;;;2.57;;
7573;SDS011;3828;48.922;9.116;2023-01-10T11:00:39;6.70;;;2.90;;
7573;SDS011;3828;48.922;9.116;2023-01-10T11:03:11;7.37;;;2.63;;
7573;SDS011;3828;48.922;9.116;2023-01-10T11:05:48;2.67;;;2.33;;
7573;SDS011;3828;48.922;9.116;2023-01-10T11:08:16;5.83;;;2.97;;
7573;SDS011;3828;48.922;9.116;2023-01-10T11:10:45;5.00;;;2.37;;
7573;SDS011;3828;48.922;9.116;2023-01-10T11:13:16;3.47;;;2.40;;
7573;SDS011;3828;48.922;9.116;2023-01-10T11:15:47;4.13;;;2.47;;
7573;SDS011;3828;48.922;9.116;2023-01-10T11:18:17;3.63;;;2.70;;
7573;SDS011;3828;48.922;9.116;2023-01-10T11:20:46;2.50;;;2.30;;
7573;SDS011;3828;48.922;9.116;2023-01-10T11:23:30;7.27;;;2.53;;
7573;SDS011;3828;48.922;9.116;2023-01-10T11:26:03;5.30;;;2.77;;
7573;SDS011;3828;48.922;9.116;2023-01-10T11:28:31;2.97;;;2.47;;
7573;SDS011;3828;48.922;9.116;2023-01-10T11:30:59;3.53;;;2.30;;
7573;SDS011;3828;48.922;9.116;2023-01-10T11:33:28;4.20;;;2.50;;
7573;SDS011;3828;48.922;9.116;2023-01-10T11:35:59;4.87;;;2.63;;
7573;SDS011;3828;48.922;9.116;2023-01-10T11:38:27;3.97;;;2.70;;
7573;SDS011;3828;48.922;9.116;2023-01-10T11:40:55;2.90;;;2.40;;
7573;SDS011;3828;48.922;9.116;2023-01-10T11:43:26;2.30;;;2.10;;
7573;SDS011;3828;48.922;9.116;2023-01-10T11:45:56;5.77;;;2.37;;
7573;SDS011;3828;48.922;9.116;2023-01-10T11:48:27;9.30;;;2.30;;
7573;SDS011;3828;48.922;9.116;2023-01-10T11:51:15;2.60;;;2.37;;
7573;SDS011;3828;48.922;9.116;2023-01-10T11:53:44;3.63;;;2.27;;
7573;SDS011;3828;48.922;9.116;2023-01-10T11:56:21;7.17;;;3.20;;
7573;SDS011;3828;48.922;9.116;2023-01-10T11:58:49;4.97;;;2.27;;
7573;SDS011;3828;48.922;9.116;2023-01-10T12:01:27;6.03;;;1.97;;
7573;SDS011;3828;48.922;9.116;2023-01-10T12:03:58;4.93;;;2.13;;
7573;SDS011;3828;48.922;9.116;2023-01-10T12:06:25;2.77;;;2.30;;
7573;SDS011;3828;48.922;9.116;2023-01-10T12:08:53;7.07;;;2.43;;
7573;SDS011;3828;48.922;9.116;2023-01-10T12:11:24;3.73;;;2.20;;
7573;SDS011;3828;48.922;9.116;2023-01-10T12:13:55;4.93;;;2.17;;
7573;SDS011;3828;48.922;9.116;2023-01-10T12:16:23;7.43;;;2.37;;
7573;SDS011;3828;48.922;9.116;2023-01-10T12:18:51;4.40;;;2.10;;
7573;SDS011;3828;48.922;9.116;2023-01-10T12:21:22;6.50;;;2.17;;
7573;SDS011;3828;48.922;9.116;2023-01-10T12:23:55;7.40;;;2.40;;
7573;SDS011;3828;48.922;9.116;2023-01-10T12:26:26;4.00;;;2.03;;
7573;SDS011;3828;48.922;9.116;2023-01-10T12:28:58;6.93;;;2.60;;
7573;SDS011;3828;48.922;9.116;2023-01-10T12:31:30;2.50;;;2.30;;
7573;SDS011;3828;48.922;9.116;2023-01-10T12:34:00;2.40;;;2.10;;
7573;SDS011;3828;48.922;9.116;2023-01-10T12:36:35;4.43;;;2.27;;
7573;SDS011;3828;48.922;9.116;2023-01-10T12:39:11;3.63;;;2.00;;
7573;SDS011;3828;48.922;9.116;2023-01-10T12:41:45;7.70;;;2.43;;
7573;SDS011;3828;48.922;9.116;2023-01-10T12:44:42;2.40;;;1.90;;
7573;SDS011;3828;48.922;9.116;2023-01-10T12:47:14;2.47;;;1.80;;
7573;SDS011;3828;48.922;9.116;2023-01-10T12:49:48;5.30;;;2.00;;
7573;SDS011;3828;48.922;9.116;2023-01-10T12:52:23;3.60;;;2.30;;
7573;SDS011;3828;48.922;9.116;2023-01-10T12:54:56;4.93;;;2.43;;
7573;SDS011;3828;48.922;9.116;2023-01-10T12:57:24;5.40;;;2.80;;
7573;SDS011;3828;48.922;9.116;2023-01-10T12:59:55;7.87;;;3.13;;
7573;SDS011;3828;48.922;9.116;2023-01-10T13:02:24;4.70;;;2.30;;
7573;SDS011;3828;48.922;9.116;2023-01-10T13:04:55;3.50;;;2.07;;
7573;SDS011;3828;48.922;9.116;2023-01-10T13:07:28;5.03;;;2.20;;
7573;SDS011;3828;48.922;9.116;2023-01-10T13:09:59;4.73;;;1.97;;
7573;SDS011;3828;48.922;9.116;2023-01-10T13:12:27;8.13;;;2.70;;
7573;SDS011;3828;48.922;9.116;2023-01-10T13:15:00;9.00;;;2.50;;
7573;SDS011;3828;48.922;9.116;2023-01-10T13:17:36;9.33;;;2.77;;
7573;SDS011;3828;48.922;9.116;2023-01-10T13:23:14;4.67;;;2.10;;
7573;SDS011;3828;48.922;9.116;2023-01-10T13:25:54;3.80;;;2.10;;
7573;SDS011;3828;48.922;9.116;2023-01-10T13:28:23;4.10;;;2.23;;
7573;SDS011;3828;48.922;9.116;2023-01-10T13:30:52;3.70;;;2.00;;
7573;SDS011;3828;48.922;9.116;2023-01-10T13:33:21;4.93;;;1.90;;
7573;SDS011;3828;48.922;9.116;2023-01-10T13:35:49;6.07;;;2.33;;
7573;SDS011;3828;48.922;9.116;2023-01-10T13:38:20;4.83;;;2.90;;
7573;SDS011;3828;48.922;9.116;2023-01-10T13:40:55;4.03;;;2.73;;
7573;SDS011;3828;48.922;9.116;2023-01-10T13:43:30;9.50;;;3.27;;
7573;SDS011;3828;48.922;9.116;2023-01-10T13:46:31;6.83;;;2.33;;
7573;SDS011;3828;48.922;9.116;2023-01-10T13:58:39;4.23;;;2.00;;
7573;SDS011;3828;48.922;9.116;2023-01-10T14:01:25;7.80;;;1.80;;
7573;SDS011;3828;48.922;9.116;2023-01-10T14:04:16;2.83;;;1.73;;
7573;SDS011;3828;48.922;9.116;2023-01-10T14:06:49;4.27;;;2.07;;
7573;SDS011;3828;48.922;9.116;2023-01-10T14:09:28;5.27;;;2.27;;
7573;SDS011;3828;48.922;9.116;2023-01-10T14:12:18;5.17;;;1.97;;
7573;SDS011;3828;48.922;9.116;2023-01-10T14:15:00;4.20;;;2.63;;
7573;SDS011;3828;48.922;9.116;2023-01-10T14:17:31;9.63;;;2.57;;
7573;SDS011;3828;48.922;9.116;2023-01-10T14:20:00;3.77;;;2.33;;
7573;SDS011;3828;48.922;9.116;2023-01-10T14:22:30;3.03;;;2.10;;
7573;SDS011;3828;48.922;9.116;2023-01-10T14:25:00;3.50;;;2.33;;
7573;SDS011;3828;48.922;9.116;2023-01-10T14:27:33;4.67;;;2.40;;
7573;SDS011;3828;48.922;9.116;2023-01-10T14:30:13;4.83;;;2.50;;
7573;SDS011;3828;48.922;9.116;2023-01-10T14:32:44;3.47;;;2.90;;
7573;SDS011;3828;48.922;9.116;2023-01-10T14:35:15;6.23;;;2.60;;
7573;SDS011;3828;48.922;9.116;2023-01-10T14:37:46;3.13;;;2.07;;
7573;SDS011;3828;48.922;9.116;2023-01-10T14:40:23;3.60;;;2.20;;
7573;SDS011;3828;48.922;9.116;2023-01-10T14:42:53;2.43;;;1.80;;
7573;SDS011;3828;48.922;9.116;2023-01-10T14:45:32;5.90;;;2.27;;
7573;SDS011;3828;48.922;9.116;2023-01-10T14:48:22;4.07;;;2.23;;
7573;SDS011;3828;48.922;9.116;2023-01-10T14:50:52;4.70;;;2.33;;
7573;SDS011;3828;48.922;9.116;2023-01-10T14:53:25;2.60;;;2.30;;
7573;SDS011;3828;48.922;9.116;2023-01-10T14:55:54;4.53;;;2.30;;
7573;SDS011;3828;48.922;9.116;2023-01-10T14:58:23;3.87;;;2.50;;
7573;SDS011;3828;48.922;9.116;2023-01-10T15:00:50;9.77;;;2.67;;
7573;SDS011;3828;48.922;9.116;2023-01-10T15:03:20;3.43;;;2.57;;
7573;SDS011;3828;48.922;9.116;2023-01-10T15:05:49;5.90;;;2.70;;
7573;SDS011;3828;48.922;9.116;2023-01-10T15:08:19;7.30;;;2.80;;
7573;SDS011;3828;48.922;9.116;2023-01-10T15:10:48;2.90;;;2.27;;
7573;SDS011;3828;48.922;9.116;2023-01-10T15:13:17;2.40;;;2.20;;
7573;SDS011;3828;48.922;9.116;2023-01-10T15:15:49;4.13;;;2.60;;
7573;SDS011;3828;48.922;9.116;2023-01-10T15:18:26;4.83;;;2.83;;
7573;SDS011;3828;48.922;9.116;2023-01-10T15:20:55;4.57;;;3.27;;
7573;SDS011;3828;48.922;9.116;2023-01-10T15:23:23;6.17;;;3.30;;
7573;SDS011;3828;48.922;9.116;2023-01-10T15:25:53;6.77;;;2.50;;
7573;SDS011;3828;48.922;9.116;2023-01-10T15:28:22;6.47;;;3.13;;
7573;SDS011;3828;48.922;9.116;2023-01-10T15:30:50;7.17;;;3.47;;
7573;SDS011;3828;48.922;9.116;2023-01-10T15:33:21;4.60;;;2.63;;
7573;SDS011;3828;48.922;9.116;2023-01-10T15:35:53;5.77;;;2.57;;
7573;SDS011;3828;48.922;9.116;2023-01-10T15:38:21;3.33;;;2.90;;
7573;SDS011;3828;48.922;9.116;2023-01-10T15:40:54;6.03;;;2.53;;
7573;SDS011;3828;48.922;9.116;2023-01-10T15:43:23;4.37;;;3.03;;
7573;SDS011;3828;48.922;9.116;2023-01-10T15:45:52;4.03;;;2.50;;
7573;SDS011;3828;48.922;9.116;2023-01-10T15:48:24;4.50;;;3.13;;
7573;SDS011;3828;48.922;9.116;2023-01-10T15:50:53;3.43;;;2.70;;
7573;SDS011;3828;48.922;9.116;2023-01-10T15:53:51;4.80;;;2.93;;
7573;SDS011;3828;48.922;9.116;2023-01-10T15:56:22;4.23;;;3.13;;
7573;SDS011;3828;48.922;9.116;2023-01-10T15:58:52;5.47;;;3.23;;
7573;SDS011;3828;48.922;9.116;2023-01-10T16:01:21;3.73;;;2.90;;